createdAt,value
2017-12-15T20:48:13.507Z,24.77
2017-12-15T20:50:42.872Z,14.60
2017-12-15T20:53:10.874Z,17.37
2017-12-15T20:55:39.685Z,12.03
2017-12-15T20:58:08.085Z,8.43
2017-12-15T21:00:35.757Z,8.47
2017-12-15T21:03:03.486Z,6.97
2017-12-15T21:05:32.332Z,10.27
2017-12-15T21:08:00.334Z,8.73
2017-12-15T21:10:28.350Z,8.43
2017-12-15T21:12:56.363Z,5.57
2017-12-15T21:15:25.466Z,6.80
2017-12-15T21:17:53.794Z,4.63
2017-12-15T21:20:22.173Z,6.73
2017-12-15T21:22:50.535Z,5.47
2017-12-15T21:25:18.878Z,6.83
2017-12-15T21:27:47.226Z,7.00
2017-12-15T21:30:15.689Z,6.43
2017-12-15T21:32:44.052Z,7.17
2017-12-15T21:35:12.389Z,4.67
2017-12-15T21:37:40.732Z,4.63
2017-12-15T21:40:09.107Z,4.40
2017-12-15T21:42:37.953Z,5.33
2017-12-15T21:45:06.299Z,5.97
2017-12-15T21:47:34.294Z,4.07
2017-12-15T21:50:02.648Z,3.80
2017-12-15T21:52:31.756Z,5.63
2017-12-15T21:55:00.733Z,6.50
2017-12-15T21:57:29.300Z,3.50
2017-12-15T21:59:58.417Z,3.10
2017-12-15T22:02:26.755Z,3.07
2017-12-15T22:04:55.863Z,5.27
2017-12-15T22:07:24.972Z,6.47
2017-12-15T22:09:53.346Z,6.47
2017-12-15T22:12:21.891Z,4.17
2017-12-15T22:14:50.229Z,3.40
2017-12-15T22:17:18.569Z,3.33
2017-12-15T22:19:47.678Z,3.13
2017-12-15T22:22:16.034Z,5.00
2017-12-15T22:24:45.138Z,3.10
2017-12-15T22:27:14.254Z,4.07
2017-12-15T22:29:42.283Z,5.67
2017-12-15T22:32:10.629Z,3.53
2017-12-15T22:34:38.974Z,4.53
2017-12-15T22:37:07.330Z,6.17
2017-12-15T22:39:36.440Z,5.27
2017-12-15T22:42:04.125Z,4.07
2017-12-15T22:44:32.484Z,5.23
2017-12-15T22:47:00.841Z,4.60
2017-12-15T22:49:29.948Z,4.23
2017-12-15T22:51:58.285Z,3.10
2017-12-15T22:54:26.653Z,7.83
2017-12-15T22:56:55.029Z,4.07
2017-12-15T22:59:23.367Z,5.03
2017-12-15T23:01:51.712Z,4.20
2017-12-15T23:04:20.825Z,3.97
2017-12-15T23:06:49.280Z,6.10
2017-12-15T23:09:17.777Z,5.10
2017-12-15T23:11:46.864Z,6.00
2017-12-15T23:14:15.977Z,4.07
2017-12-15T23:16:44.333Z,3.50
2017-12-15T23:19:13.440Z,5.40
2017-12-15T23:21:41.798Z,5.40
2017-12-15T23:24:10.922Z,5.30
2017-12-15T23:26:39.251Z,4.83
2017-12-15T23:29:07.596Z,3.40
2017-12-15T23:31:35.932Z,5.27
2017-12-15T23:34:04.697Z,5.70
2017-12-15T23:36:33.067Z,5.83
2017-12-15T23:39:01.410Z,5.30
2017-12-15T23:41:30.187Z,5.47
2017-12-15T23:43:58.553Z,6.83
2017-12-15T23:46:26.229Z,5.27
2017-12-15T23:48:53.900Z,5.93
2017-12-15T23:51:21.930Z,6.33
2017-12-15T23:53:51.035Z,3.30
2017-12-15T23:56:30.974Z,3.77
2017-12-15T23:58:59.379Z,5.07
